Time;durP1;ratioP1;P1;durP2;ratioP2;P2;SDS_P1;SDS_P2;PMS_P1;PMS_P2;Temp;Humidity;BMP_temperature;BMP_pressure;BME280_temperature;BME280_humidity;BME280_pressure;Samples;Min_cycle;Max_cycle;Signal;HPM_P1;HPM_P2
2022/04/19 00:01:42;;;;;;;6.45;4.65;;;5.70;99.90;;;;;;5032738;28;20389;-59
2022/04/19 00:04:08;;;;;;;10.93;5.75;;;5.80;99.90;;;;;;5033601;28;20037;-60
2022/04/19 00:06:35;;;;;;;15.80;5.47;;;5.80;99.90;;;;;;5033260;28;20083;-60
2022/04/19 00:09:01;;;;;;;5.80;4.68;;;5.80;99.90;;;;;;5033657;28;20016;-60
2022/04/19 00:11:27;;;;;;;7.10;4.95;;;5.90;99.90;;;;;;5033053;28;20022;-59
2022/04/19 00:13:53;;;;;;;6.78;4.75;;;5.90;99.90;;;;;;5032418;28;20014;-60
2022/04/19 00:16:19;;;;;;;4.78;4.30;;;5.90;99.90;;;;;;5032730;28;20059;-59
2022/04/19 00:18:44;;;;;;;6.25;4.70;;;6.00;99.90;;;;;;5033255;28;20021;-59
2022/04/19 00:21:10;;;;;;;5.95;4.68;;;5.90;99.90;;;;;;5031364;28;20113;-59
2022/04/19 00:23:35;;;;;;;5.25;4.75;;;6.00;99.90;;;;;;5033519;28;20021;-59
2022/04/19 00:26:01;;;;;;;8.18;4.90;;;5.90;99.90;;;;;;5033169;28;20377;-59
2022/04/19 00:28:27;;;;;;;5.38;4.63;;;5.80;99.90;;;;;;5032377;28;20044;-59
2022/04/19 00:30:53;;;;;;;5.65;4.60;;;5.70;99.90;;;;;;5032667;28;20028;-60
2022/04/19 00:33:18;;;;;;;5.28;4.55;;;5.70;99.90;;;;;;5032546;28;20420;-59
2022/04/19 00:35:44;;;;;;;8.02;4.18;;;5.60;99.90;;;;;;5032592;28;20030;-59
2022/04/19 00:38:09;;;;;;;5.95;5.18;;;5.60;99.90;;;;;;5032749;28;20535;-60
2022/04/19 00:40:36;;;;;;;4.65;4.25;;;5.80;99.90;;;;;;5032791;28;20103;-60
2022/04/19 00:43:02;;;;;;;5.95;4.55;;;5.80;99.90;;;;;;5030913;28;20036;-59
2022/04/19 00:45:31;;;;;;;5.18;4.53;;;5.80;99.90;;;;;;5032135;28;20032;-59
2022/04/19 00:47:57;;;;;;;9.68;5.40;;;5.90;99.90;;;;;;5032546;28;20112;-59
2022/04/19 00:50:24;;;;;;;5.43;4.20;;;5.90;99.90;;;;;;5030929;28;20168;-59
2022/04/19 00:52:50;;;;;;;5.95;4.50;;;5.90;99.90;;;;;;5031982;28;20108;-59
2022/04/19 00:55:15;;;;;;;5.60;4.43;;;5.80;99.90;;;;;;5032621;28;20041;-60
2022/04/19 00:57:42;;;;;;;6.65;4.80;;;5.70;99.90;;;;;;5032232;28;20029;-59
2022/04/19 01:00:12;;;;;;;6.65;4.57;;;5.60;99.90;;;;;;5032213;28;20033;-59
2022/04/19 01:02:38;;;;;;;8.43;4.90;;;5.50;99.90;;;;;;5032523;28;20033;-59
2022/04/19 01:05:05;;;;;;;11.02;4.75;;;5.60;99.90;;;;;;5032500;28;20449;-60
2022/04/19 01:07:32;;;;;;;6.95;4.80;;;5.70;99.90;;;;;;5032448;28;20036;-60
2022/04/19 01:09:58;;;;;;;5.38;4.35;;;5.60;99.90;;;;;;5032523;28;20024;-59
2022/04/19 01:15:09;;;;;;;7.00;4.80;;;5.80;99.90;;;;;;5031949;28;20040;-59
2022/04/19 01:17:40;;;;;;;7.45;4.90;;;5.70;99.90;;;;;;5031490;28;20037;-60
2022/04/19 01:20:09;;;;;;;5.43;4.93;;;5.70;99.90;;;;;;5031757;28;20036;-60
2022/04/19 01:22:36;;;;;;;4.80;4.28;;;5.60;99.90;;;;;;5032105;28;20037;-59
2022/04/19 01:25:02;;;;;;;7.72;4.75;;;5.60;99.90;;;;;;5032069;28;20075;-60
2022/04/19 01:27:28;;;;;;;5.10;4.53;;;5.60;99.90;;;;;;5031816;28;20546;-60
2022/04/19 01:30:02;;;;;;;9.90;4.60;;;5.60;99.90;;;;;;5031794;28;20386;-59
2022/04/19 01:32:28;;;;;;;6.22;5.30;;;5.50;99.90;;;;;;5031879;28;20029;-59
2022/04/19 01:35:21;;;;;;;8.00;4.38;;;5.50;99.90;;;;;;5031688;28;20022;-60
2022/04/19 01:37:48;;;;;;;5.50;4.65;;;5.50;99.90;;;;;;5031650;28;20026;-59
2022/04/19 01:40:18;;;;;;;5.10;4.60;;;5.60;99.90;;;;;;5031287;28;20022;-59
2022/04/19 01:42:48;;;;;;;7.35;4.28;;;5.50;99.90;;;;;;5031987;28;20029;-59
2022/04/19 01:45:22;;;;;;;5.50;4.45;;;5.50;99.90;;;;;;5031310;28;20086;-59
2022/04/19 01:47:48;;;;;;;4.70;4.20;;;5.40;99.90;;;;;;5030823;28;20101;-59
2022/04/19 01:50:15;;;;;;;6.15;4.35;;;5.30;99.90;;;;;;5031802;28;20452;-59
2022/04/19 01:52:42;;;;;;;7.38;4.88;;;5.20;99.90;;;;;;5031645;28;20104;-59
2022/04/19 01:55:11;;;;;;;5.53;4.40;;;5.10;99.90;;;;;;5031236;28;20732;-60
2022/04/19 01:57:37;;;;;;;6.97;4.78;;;5.10;99.90;;;;;;5031596;28;20473;-59
2022/04/19 02:00:04;;;;;;;5.85;4.68;;;5.20;99.90;;;;;;5030772;28;20102;-59
2022/04/19 02:02:30;;;;;;;8.10;4.82;;;5.20;99.90;;;;;;5029730;28;20036;-59
2022/04/19 02:04:56;;;;;;;7.07;4.63;;;5.20;99.90;;;;;;5031235;28;20018;-59
2022/04/19 02:07:21;;;;;;;5.85;4.75;;;5.20;99.90;;;;;;5031098;28;20537;-59
2022/04/19 02:09:47;;;;;;;6.03;4.65;;;5.20;99.90;;;;;;5031069;28;20115;-59
2022/04/19 02:12:13;;;;;;;6.22;4.88;;;5.30;99.90;;;;;;5031205;28;20556;-59
2022/04/19 02:14:41;;;;;;;5.57;4.90;;;5.30;99.90;;;;;;5030157;28;20064;-59
2022/04/19 02:17:09;;;;;;;9.70;5.15;;;5.40;99.90;;;;;;5029020;28;20021;-59
2022/04/19 02:19:35;;;;;;;6.10;4.82;;;5.50;99.90;;;;;;5029870;28;20017;-59
2022/04/19 02:22:02;;;;;;;5.72;4.43;;;5.40;99.90;;;;;;5030709;28;20485;-59
2022/04/19 02:24:28;;;;;;;6.80;5.03;;;5.40;99.90;;;;;;5029315;28;20428;-59
2022/04/19 02:26:54;;;;;;;5.70;5.20;;;5.50;99.90;;;;;;5030614;28;20034;-60
2022/04/19 02:29:19;;;;;;;6.97;4.78;;;5.50;99.90;;;;;;5029892;28;20059;-59
2022/04/19 02:31:46;;;;;;;5.05;4.28;;;5.50;99.90;;;;;;5029884;28;20534;-60
2022/04/19 02:34:11;;;;;;;6.15;4.90;;;5.50;99.90;;;;;;5030059;28;20026;-59
2022/04/19 02:36:39;;;;;;;12.35;4.70;;;5.40;99.90;;;;;;5030246;28;20030;-59
2022/04/19 02:39:05;;;;;;;5.55;5.03;;;5.40;99.90;;;;;;5029810;28;20121;-59
2022/04/19 02:41:31;;;;;;;8.55;5.20;;;5.50;99.90;;;;;;5030455;28;20018;-59
2022/04/19 02:43:59;;;;;;;5.55;5.05;;;5.50;99.90;;;;;;5030478;28;20021;-59
2022/04/19 02:46:24;;;;;;;6.38;4.55;;;5.40;99.90;;;;;;5030400;28;20018;-60
2022/04/19 02:48:50;;;;;;;7.32;5.65;;;5.40;99.90;;;;;;5030932;28;20028;-59
2022/04/19 02:51:16;;;;;;;6.65;4.72;;;5.40;99.90;;;;;;5030977;28;20480;-59
2022/04/19 02:53:43;;;;;;;7.72;5.22;;;5.40;99.90;;;;;;5030508;28;20084;-59
2022/04/19 02:56:08;;;;;;;9.48;5.00;;;5.40;99.90;;;;;;5030925;28;20022;-59
2022/04/19 02:58:34;;;;;;;9.15;7.50;;;5.40;99.90;;;;;;5030253;28;20029;-59
2022/04/19 03:00:59;;;;;;;9.02;6.03;;;5.40;99.90;;;;;;5030796;28;20037;-59
2022/04/19 03:03:25;;;;;;;6.15;5.00;;;5.40;99.90;;;;;;5030625;28;20029;-59
2022/04/19 03:05:52;;;;;;;6.22;5.60;;;5.50;99.90;;;;;;5030571;28;20113;-60
2022/04/19 03:08:19;;;;;;;6.05;5.10;;;5.30;99.90;;;;;;5031175;28;20469;-60
2022/04/19 03:10:45;;;;;;;8.32;4.85;;;5.30;99.90;;;;;;5031262;28;20029;-59
2022/04/19 03:13:11;;;;;;;8.98;4.60;;;5.40;99.90;;;;;;5031186;28;20488;-60
2022/04/19 03:15:37;;;;;;;6.78;5.38;;;5.40;99.90;;;;;;5031190;28;20037;-59
2022/04/19 03:18:03;;;;;;;8.75;5.15;;;5.40;99.90;;;;;;5031296;28;20025;-60
2022/04/19 03:20:29;;;;;;;4.78;4.28;;;5.50;99.90;;;;;;5031301;28;20034;-59
2022/04/19 03:28:23;;;;;;;5.40;4.78;;;5.70;99.90;;;;;;5031180;28;19924;-59
2022/04/19 03:30:48;;;;;;;6.68;5.80;;;5.70;99.90;;;;;;5031150;28;20021;-59
2022/04/19 03:33:16;;;;;;;8.43;5.10;;;5.70;99.90;;;;;;5031112;28;20495;-59
2022/04/19 03:35:41;;;;;;;7.80;6.72;;;5.60;99.90;;;;;;5031070;28;20029;-59
2022/04/19 03:38:08;;;;;;;10.60;8.63;;;5.60;99.90;;;;;;5030927;28;20029;-59
2022/04/19 03:40:34;;;;;;;5.90;5.30;;;5.70;99.90;;;;;;5031165;28;20108;-59
2022/04/19 03:43:00;;;;;;;11.40;6.28;;;5.70;99.90;;;;;;5029828;28;20032;-59
2022/04/19 03:45:26;;;;;;;10.10;4.60;;;5.70;99.90;;;;;;5030858;28;20026;-59
2022/04/19 03:47:52;;;;;;;6.72;5.15;;;5.80;99.90;;;;;;5030910;28;20114;-55
2022/04/19 03:50:18;;;;;;;10.00;5.90;;;5.80;99.90;;;;;;5033728;28;20021;-59
2022/04/19 03:52:44;;;;;;;6.72;5.68;;;5.90;99.90;;;;;;5033822;28;20028;-59
2022/04/19 03:55:10;;;;;;;6.47;5.07;;;5.90;99.90;;;;;;5033337;28;20405;-59
2022/04/19 03:57:36;;;;;;;9.05;5.03;;;5.80;99.90;;;;;;5033188;28;20018;-59
2022/04/19 04:00:02;;;;;;;6.38;4.47;;;5.90;99.90;;;;;;5033290;28;20033;-59
2022/04/19 04:02:28;;;;;;;6.68;5.80;;;6.00;99.90;;;;;;5032993;28;20105;-59
2022/04/19 04:04:53;;;;;;;4.90;4.00;;;6.00;99.90;;;;;;5033177;28;20100;-59
2022/04/19 04:07:19;;;;;;;6.90;4.63;;;6.00;99.90;;;;;;5032847;28;20292;-59
2022/04/19 04:09:45;;;;;;;11.00;5.18;;;6.00;99.90;;;;;;5033579;28;20024;-60
2022/04/19 04:12:14;;;;;;;9.90;4.75;;;6.10;99.90;;;;;;5034063;28;20097;-60
2022/04/19 04:14:42;;;;;;;4.60;4.20;;;6.10;99.90;;;;;;5033887;28;20034;-60
2022/04/19 04:17:08;;;;;;;9.13;4.28;;;6.20;99.90;;;;;;5033755;28;20427;-60
2022/04/19 04:19:34;;;;;;;5.28;4.55;;;6.20;99.90;;;;;;5033727;28;20029;-60
2022/04/19 04:21:59;;;;;;;5.63;4.65;;;6.30;99.90;;;;;;5033869;28;20096;-60
2022/04/19 04:24:26;;;;;;;5.88;4.40;;;6.30;99.90;;;;;;5033950;28;20021;-60
2022/04/19 04:26:52;;;;;;;4.32;3.92;;;6.40;99.90;;;;;;5033899;28;20040;-60
2022/04/19 04:29:17;;;;;;;6.00;4.72;;;6.50;99.90;;;;;;5033635;28;20442;-60
2022/04/19 04:31:43;;;;;;;6.00;5.10;;;6.50;99.90;;;;;;5032277;28;20112;-60
2022/04/19 04:34:09;;;;;;;6.07;5.28;;;6.60;99.90;;;;;;5033361;28;20109;-60
2022/04/19 04:36:35;;;;;;;5.60;4.32;;;6.70;99.90;;;;;;5033875;28;20018;-60
2022/04/19 04:39:00;;;;;;;5.63;5.00;;;6.90;99.90;;;;;;5033725;28;20014;-60
2022/04/19 04:41:26;;;;;;;5.38;4.88;;;7.00;99.90;;;;;;5033198;28;20078;-60
2022/04/19 04:43:52;;;;;;;4.47;4.07;;;7.00;99.90;;;;;;5033009;28;20048;-60
2022/04/19 04:51:45;;;;;;;;;;;7.20;99.90;;;;;;5034272;28;20028;-60
2022/04/19 04:54:11;;;;;;;5.63;4.53;;;7.20;99.90;;;;;;5033379;28;19905;-60
2022/04/19 04:56:36;;;;;;;5.15;4.28;;;7.20;99.90;;;;;;5033356;28;20397;-60
2022/04/19 04:59:02;;;;;;;7.78;3.78;;;7.20;99.90;;;;;;5033328;28;20463;-60
2022/04/19 05:01:28;;;;;;;3.78;3.40;;;7.20;99.90;;;;;;5032529;28;20087;-60
2022/04/19 05:03:54;;;;;;;4.70;3.60;;;7.20;99.90;;;;;;5033149;28;20428;-60
2022/04/19 05:06:19;;;;;;;5.78;3.85;;;7.20;99.90;;;;;;5032208;28;20022;-60
2022/04/19 05:08:45;;;;;;;5.97;4.20;;;7.20;99.90;;;;;;5032335;28;20025;-60
2022/04/19 05:11:10;;;;;;;7.95;3.97;;;7.30;99.90;;;;;;5032581;28;20036;-60
2022/04/19 05:13:36;;;;;;;5.43;4.00;;;7.30;99.90;;;;;;5032387;28;20120;-60
2022/04/19 05:16:02;;;;;;;11.35;4.18;;;7.30;99.90;;;;;;5032621;28;20042;-60
2022/04/19 05:18:30;;;;;;;4.38;3.95;;;7.40;99.90;;;;;;5032521;28;20029;-60
2022/04/19 05:20:55;;;;;;;6.28;4.60;;;7.40;99.90;;;;;;5031019;28;20030;-60
2022/04/19 05:23:21;;;;;;;6.90;4.93;;;7.50;99.90;;;;;;5032354;28;20036;-60
2022/04/19 05:25:47;;;;;;;6.93;5.88;;;7.60;99.90;;;;;;5031523;28;20384;-60
2022/04/19 05:28:14;;;;;;;8.32;4.68;;;7.60;99.90;;;;;;5032544;28;20053;-58
2022/04/19 05:30:40;;;;;;;8.63;5.13;;;7.70;99.90;;;;;;5032508;28;20041;-61
2022/04/19 05:33:06;;;;;;;9.38;5.88;;;7.70;99.90;;;;;;5032547;28;20380;-61
2022/04/19 05:35:32;;;;;;;4.15;3.25;;;7.80;99.90;;;;;;5032215;28;20124;-61
2022/04/19 05:37:59;;;;;;;3.88;3.58;;;7.90;99.90;;;;;;5032207;28;20049;-60
2022/04/19 05:40:25;;;;;;;3.55;3.05;;;8.00;99.90;;;;;;5032326;28;20152;-59
2022/04/19 05:42:51;;;;;;;4.18;3.70;;;8.00;99.90;;;;;;5032454;28;20067;-59
2022/04/19 05:45:17;;;;;;;6.93;3.55;;;7.90;99.90;;;;;;5031023;28;20584;-59
2022/04/19 05:47:43;;;;;;;5.82;3.63;;;7.80;99.90;;;;;;5031939;28;20041;-59
2022/04/19 05:50:09;;;;;;;4.15;3.22;;;7.70;99.90;;;;;;5031963;28;20026;-60
2022/04/19 05:52:35;;;;;;;5.18;4.15;;;7.60;99.90;;;;;;5032151;28;20021;-59
2022/04/19 05:55:01;;;;;;;7.22;4.18;;;7.60;99.90;;;;;;5032199;28;20540;-60
2022/04/19 05:57:27;;;;;;;6.35;4.10;;;7.50;99.90;;;;;;5031998;28;20021;-60
2022/04/19 05:59:52;;;;;;;9.45;3.85;;;7.50;99.90;;;;;;5030655;28;20541;-60
2022/04/19 06:05:02;;;;;;;;;;;7.70;99.90;;;;;;5032606;28;20484;-59
2022/04/19 06:07:32;;;;;;;3.72;3.33;;;7.70;99.90;;;;;;5031794;28;19908;-59
2022/04/19 06:09:59;;;;;;;8.80;5.45;;;8.00;99.90;;;;;;5032068;28;20033;-59
2022/04/19 06:12:25;;;;;;;27.17;8.02;;;8.10;99.90;;;;;;5030938;28;20159;-60
2022/04/19 06:14:50;;;;;;;62.78;25.80;;;8.10;99.20;;;;;;5031793;28;20068;-60
2022/04/19 06:17:17;;;;;;;8.27;5.03;;;8.10;99.70;;;;;;5031824;28;20506;-60
2022/04/19 06:19:44;;;;;;;43.92;16.77;;;8.10;99.20;;;;;;5030589;28;20025;-60
2022/04/19 06:22:10;;;;;;;15.77;7.55;;;8.20;99.90;;;;;;5031859;28;20037;-60
2022/04/19 06:24:36;;;;;;;26.85;10.68;;;8.30;99.90;;;;;;5031651;28;20021;-60
2022/04/19 06:27:03;;;;;;;20.70;8.07;;;8.30;99.90;;;;;;5031681;28;20029;-60
2022/04/19 06:29:28;;;;;;;116.35;41.95;;;8.40;99.10;;;;;;5031527;28;20114;-60
2022/04/19 06:31:54;;;;;;;184.98;61.50;;;8.10;99.50;;;;;;5031772;28;20026;-60
2022/04/19 06:34:20;;;;;;;106.35;36.53;;;8.00;99.70;;;;;;5031525;28;20384;-60
2022/04/19 06:36:46;;;;;;;66.43;26.02;;;8.00;99.70;;;;;;5031496;28;20036;-60
2022/04/19 06:39:12;;;;;;;6.93;3.72;;;8.10;99.90;;;;;;5031269;28;20017;-60
2022/04/19 06:41:38;;;;;;;5.22;3.20;;;8.20;99.90;;;;;;5029938;28;20028;-59
2022/04/19 06:44:05;;;;;;;3.97;3.47;;;8.30;99.90;;;;;;5031003;28;20100;-60
2022/04/19 06:46:31;;;;;;;4.78;3.95;;;8.30;99.90;;;;;;5029792;28;20505;-60
2022/04/19 06:48:58;;;;;;;6.63;4.30;;;8.20;99.90;;;;;;5031361;28;20029;-60
2022/04/19 06:51:25;;;;;;;8.02;5.10;;;8.10;99.90;;;;;;5031120;28;20025;-60
2022/04/19 06:53:51;;;;;;;5.07;3.75;;;8.10;99.90;;;;;;5031111;28;20029;-60
2022/04/19 06:56:18;;;;;;;3.40;3.10;;;8.10;99.90;;;;;;5031062;28;20036;-60
2022/04/19 06:58:44;;;;;;;4.57;4.15;;;8.30;99.90;;;;;;5031139;28;20048;-60
2022/04/19 07:01:10;;;;;;;4.25;3.60;;;8.30;99.90;;;;;;5031214;28;20021;-60
2022/04/19 07:03:37;;;;;;;5.32;4.80;;;8.30;99.90;;;;;;5031453;28;20034;-60
2022/04/19 07:06:03;;;;;;;6.10;4.10;;;8.20;99.90;;;;;;5031373;28;20064;-60
2022/04/19 07:08:29;;;;;;;7.78;4.43;;;8.30;99.90;;;;;;5031098;28;20075;-60
2022/04/19 07:10:56;;;;;;;7.13;5.47;;;8.20;99.90;;;;;;5031289;28;20022;-59
2022/04/19 07:13:23;;;;;;;5.05;4.20;;;8.10;99.90;;;;;;5030798;28;20018;-59
2022/04/19 07:15:49;;;;;;;5.53;4.63;;;8.10;99.90;;;;;;5030781;28;20124;-59
2022/04/19 07:18:17;;;;;;;5.55;4.10;;;8.20;99.90;;;;;;5031107;28;20065;-60
2022/04/19 07:28:56;;;;;;;7.63;5.25;;;8.20;99.90;;;;;;5034719;28;20044;-59
2022/04/19 07:31:21;;;;;;;6.93;5.85;;;8.10;99.90;;;;;;5034733;28;20026;-60
2022/04/19 07:33:47;;;;;;;5.18;4.68;;;8.30;99.90;;;;;;5034775;28;20022;-60
2022/04/19 07:36:13;;;;;;;6.13;4.93;;;8.30;99.90;;;;;;5034637;28;20035;-59
2022/04/19 07:38:38;;;;;;;6.05;5.18;;;8.20;99.90;;;;;;5035007;28;20099;-60
2022/04/19 07:41:04;;;;;;;6.13;5.18;;;8.10;99.90;;;;;;5034705;28;20029;-60
2022/04/19 07:43:30;;;;;;;7.05;5.63;;;8.10;99.90;;;;;;5034610;28;20033;-60
2022/04/19 07:45:56;;;;;;;6.68;5.22;;;8.30;99.90;;;;;;5033286;28;20033;-60
2022/04/19 07:48:22;;;;;;;6.55;5.82;;;8.10;99.90;;;;;;5034297;28;20071;-60
2022/04/19 07:50:47;;;;;;;10.38;6.30;;;7.80;99.90;;;;;;5034574;28;20381;-60
2022/04/19 07:53:13;;;;;;;6.72;5.57;;;7.90;99.90;;;;;;5034180;28;20648;-60
2022/04/19 07:55:39;;;;;;;8.93;5.90;;;7.90;99.90;;;;;;5034486;28;20037;-60
2022/04/19 07:58:05;;;;;;;5.90;5.30;;;8.10;99.90;;;;;;5034414;28;20032;-60
2022/04/19 08:00:30;;;;;;;7.53;5.70;;;8.20;99.90;;;;;;5034354;28;20026;-60
2022/04/19 08:02:57;;;;;;;8.00;5.18;;;8.30;99.90;;;;;;5032931;28;20044;-60
2022/04/19 08:05:24;;;;;;;7.00;5.72;;;8.30;99.90;;;;;;5034057;28;20029;-60
2022/04/19 08:07:50;;;;;;;6.72;5.03;;;8.40;99.90;;;;;;5034359;28;20380;-60
2022/04/19 08:10:17;;;;;;;5.85;5.13;;;8.50;99.90;;;;;;5032733;28;20021;-60
2022/04/19 08:12:44;;;;;;;6.95;5.57;;;8.40;99.90;;;;;;5034082;28;20018;-59
2022/04/19 08:15:09;;;;;;;9.23;6.53;;;8.50;99.90;;;;;;5033842;28;20042;-60
2022/04/19 08:17:37;;;;;;;8.95;5.72;;;8.60;99.90;;;;;;5034183;28;20033;-60
2022/04/19 08:20:06;;;;;;;8.10;5.68;;;8.80;99.90;;;;;;5034092;28;20030;-60
2022/04/19 08:22:32;;;;;;;5.57;4.95;;;8.90;99.90;;;;;;5040716;28;20028;-60
2022/04/19 08:24:59;;;;;;;7.13;5.45;;;8.60;99.90;;;;;;5054080;28;20111;-60
2022/04/19 08:27:25;;;;;;;7.95;4.60;;;8.60;99.90;;;;;;5053342;28;20033;-60
2022/04/19 08:29:51;;;;;;;5.25;4.57;;;8.70;99.90;;;;;;5053790;28;20021;-59
2022/04/19 08:32:17;;;;;;;6.82;4.78;;;8.90;99.90;;;;;;5053521;28;20021;-60
2022/04/19 08:34:42;;;;;;;6.78;4.80;;;9.10;99.90;;;;;;5053482;28;20040;-59
2022/04/19 08:37:09;;;;;;;4.25;3.88;;;9.20;99.90;;;;;;5052755;28;20071;-59
2022/04/19 08:39:36;;;;;;;7.63;4.78;;;9.00;99.90;;;;;;5053554;28;20419;-60
2022/04/19 08:42:04;;;;;;;6.40;5.07;;;9.00;99.90;;;;;;5053290;28;20474;-60
2022/04/19 08:44:30;;;;;;;7.18;5.63;;;8.90;99.90;;;;;;5053517;28;20035;-60
2022/04/19 08:46:57;;;;;;;6.88;5.28;;;8.60;99.90;;;;;;5053217;28;20033;-59
2022/04/19 08:49:25;;;;;;;6.30;4.65;;;8.40;99.90;;;;;;5053147;28;20029;-60
2022/04/19 08:51:51;;;;;;;5.93;5.13;;;8.70;99.90;;;;;;5053269;28;20012;-60
2022/04/19 08:59:45;;;;;;;7.25;5.40;;;8.60;99.90;;;;;;5053633;28;20051;-60
2022/04/19 09:02:22;;;;;;;7.78;6.88;;;8.90;99.90;;;;;;5053031;28;20441;-60
2022/04/19 09:04:49;;;;;;;8.05;7.22;;;8.80;99.90;;;;;;5053037;28;20021;-60
2022/04/19 09:07:16;;;;;;;8.82;6.28;;;8.90;99.90;;;;;;5052741;28;20029;-60
2022/04/19 09:09:42;;;;;;;7.45;6.45;;;9.10;99.90;;;;;;5052926;28;20334;-60
2022/04/19 09:12:12;;;;;;;5.63;4.80;;;9.10;99.90;;;;;;5053010;28;20112;-59
2022/04/19 09:14:58;;;;;;;8.40;5.55;;;9.20;99.90;;;;;;5052806;28;20067;-59
2022/04/19 09:17:41;;;;;;;8.27;5.75;;;9.10;99.90;;;;;;5052668;28;20029;-60
2022/04/19 09:20:12;;;;;;;6.63;5.00;;;9.10;99.90;;;;;;5052742;28;20059;-60
2022/04/19 09:22:39;;;;;;;6.78;4.63;;;8.90;99.90;;;;;;5052822;28;20029;-60
2022/04/19 09:25:25;;;;;;;9.27;7.10;;;8.80;99.90;;;;;;5052089;28;20034;-60
2022/04/19 09:27:55;;;;;;;8.73;6.50;;;8.90;99.90;;;;;;5052234;28;20033;-59
2022/04/19 09:30:28;;;;;;;5.35;4.82;;;9.00;99.90;;;;;;5052462;28;20708;-60
2022/04/19 09:33:05;;;;;;;;;;;8.90;99.90;;;;;;5053188;28;20068;-60
2022/04/19 09:35:47;;;;;;;8.90;5.82;;;9.00;99.90;;;;;;5052473;28;19904;-60
2022/04/19 09:38:14;;;;;;;6.28;5.10;;;9.00;99.90;;;;;;5052033;28;20025;-60
2022/04/19 09:40:44;;;;;;;5.65;4.97;;;9.50;99.90;;;;;;5051951;28;20376;-60
2022/04/19 09:43:17;;;;;;;12.45;6.63;;;9.80;99.90;;;;;;5050809;28;20025;-60
2022/04/19 09:45:47;;;;;;;;;;;9.50;99.90;;;;;;5053030;28;20462;-59
2022/04/19 09:48:21;;;;;;;5.63;4.50;;;9.60;99.90;;;;;;5052055;28;19928;-57
2022/04/19 09:50:51;;;;;;;6.05;4.75;;;9.90;99.90;;;;;;5051962;28;20024;-60
2022/04/19 09:53:20;;;;;;;6.13;5.25;;;9.70;99.90;;;;;;5052135;28;20163;-59
2022/04/19 09:55:48;;;;;;;8.38;5.93;;;9.70;99.90;;;;;;5052107;28;20020;-59
2022/04/19 09:58:15;;;;;;;11.38;5.05;;;9.70;99.90;;;;;;5052179;28;20025;-59
2022/04/19 10:00:43;;;;;;;8.85;6.57;;;9.90;99.90;;;;;;5052315;28;20029;-60
2022/04/19 10:08:37;;;;;;;10.02;4.80;;;9.80;99.90;;;;;;5052068;28;20048;-59
2022/04/19 10:11:04;;;;;;;9.52;5.68;;;10.10;99.90;;;;;;5051927;28;20554;-60
2022/04/19 10:13:30;;;;;;;6.03;4.50;;;10.10;99.90;;;;;;5051836;28;20432;-60
2022/04/19 10:15:55;;;;;;;6.95;5.13;;;10.40;99.90;;;;;;5051883;28;20087;-59
2022/04/19 10:18:21;;;;;;;4.68;3.90;;;10.20;99.90;;;;;;5051694;28;20420;-60
2022/04/19 10:21:01;;;;;;;8.98;5.07;;;10.30;99.90;;;;;;5051913;28;20084;-60
2022/04/19 10:23:38;;;;;;;7.65;4.85;;;10.50;99.90;;;;;;5051432;28;20380;-60
2022/04/19 10:26:13;;;;;;;9.55;6.57;;;10.80;99.90;;;;;;5051787;28;20079;-60
2022/04/19 10:28:39;;;;;;;4.97;4.18;;;10.50;99.90;;;;;;5017524;28;20037;-60
2022/04/19 10:31:05;;;;;;;5.63;4.10;;;10.60;99.90;;;;;;5018407;28;20056;-60
2022/04/19 10:33:42;;;;;;;18.75;12.00;;;10.30;99.90;;;;;;5022682;28;20483;-59
2022/04/19 10:36:14;;;;;;;6.50;5.30;;;9.80;99.90;;;;;;5037390;28;20067;-59
2022/04/19 10:38:44;;;;;;;6.53;4.45;;;9.70;99.90;;;;;;5021260;28;20619;-60
2022/04/19 10:41:11;;;;;;;8.23;5.00;;;9.70;99.90;;;;;;5020736;28;20145;-59
2022/04/19 10:43:36;;;;;;;8.30;4.30;;;10.00;99.90;;;;;;5019411;28;20029;-60
2022/04/19 10:46:21;;;;;;;5.20;3.42;;;10.10;99.90;;;;;;5020021;28;20033;-60
2022/04/19 10:49:25;;;;;;;5.97;4.38;;;10.10;99.90;;;;;;5038364;28;20094;-59
2022/04/19 10:52:01;;;;;;;5.95;4.70;;;10.00;99.90;;;;;;5037254;28;20049;-59
2022/04/19 10:55:00;;;;;;;10.15;5.13;;;9.80;99.90;;;;;;5040198;28;20068;-60
2022/04/19 11:00:34;;;;;;;10.27;4.95;;;9.80;99.90;;;;;;5032559;28;21081;-59
2022/04/19 11:03:05;;;;;;;7.50;5.53;;;9.50;99.90;;;;;;5043508;28;20031;-60
2022/04/19 11:05:57;;;;;;;6.45;5.85;;;9.40;99.90;;;;;;5044662;28;20078;-60
2022/04/19 11:08:26;;;;;;;16.02;7.93;;;9.20;99.90;;;;;;5044004;28;20047;-59
2022/04/19 11:11:21;;;;;;;5.68;5.10;;;9.10;99.90;;;;;;5043546;28;20032;-60
2022/04/19 11:14:18;;;;;;;5.70;4.72;;;9.20;99.90;;;;;;5039421;28;20038;-60
2022/04/19 11:16:45;;;;;;;6.03;5.20;;;9.20;99.90;;;;;;5024092;28;20388;-60
2022/04/19 11:19:16;;;;;;;4.82;4.38;;;9.20;99.90;;;;;;5043909;28;20053;-60
2022/04/19 11:21:52;;;;;;;9.35;5.15;;;9.30;99.90;;;;;;5043972;28;20044;-59
2022/04/19 11:24:55;;;;;;;5.60;3.95;;;9.40;99.90;;;;;;5044145;28;20017;-59
2022/04/19 11:27:21;;;;;;;5.90;4.47;;;9.40;99.90;;;;;;5043855;28;20040;-60
2022/04/19 11:29:47;;;;;;;8.90;4.72;;;9.60;99.90;;;;;;5043029;28;20025;-60
2022/04/19 11:32:22;;;;;;;5.50;4.75;;;9.70;99.90;;;;;;5042306;28;20033;-60
2022/04/19 11:35:04;;;;;;;7.68;4.25;;;9.70;99.90;;;;;;5043593;28;20029;-60
2022/04/19 11:37:31;;;;;;;4.90;3.80;;;9.80;99.90;;;;;;5044275;28;20129;-60
2022/04/19 11:48:36;;;;;;;4.60;3.53;;;10.00;99.90;;;;;;5024302;28;20040;-60
2022/04/19 11:51:10;;;;;;;;;;;9.80;99.90;;;;;;5023976;28;20025;-60
2022/04/19 11:53:36;;;;;;;4.03;3.63;;;9.70;99.90;;;;;;5024330;28;19913;-60
2022/04/19 11:56:02;;;;;;;5.85;3.42;;;9.70;99.90;;;;;;5023625;28;20091;-60
2022/04/19 11:58:28;;;;;;;6.13;3.40;;;9.90;99.90;;;;;;5024677;28;20029;-60
2022/04/19 12:01:10;;;;;;;7.30;3.17;;;9.70;99.90;;;;;;5033983;28;20108;-60
2022/04/19 12:03:37;;;;;;;3.33;3.00;;;9.70;99.90;;;;;;5034202;28;20129;-60
2022/04/19 12:06:09;;;;;;;3.47;3.17;;;10.00;99.90;;;;;;5034222;28;20037;-60
2022/04/19 12:08:37;;;;;;;3.15;2.65;;;10.20;99.70;;;;;;5032722;28;20670;-60
2022/04/19 12:11:06;;;;;;;4.53;3.30;;;10.10;98.50;;;;;;5034115;28;20025;-60
2022/04/19 12:13:32;;;;;;;3.45;3.08;;;10.20;99.70;;;;;;5034141;28;20465;-60
2022/04/19 12:15:57;;;;;;;5.05;3.33;;;10.10;99.40;;;;;;5034107;28;20400;-60
2022/04/19 12:18:38;;;;;;;6.85;3.30;;;9.60;99.90;;;;;;5033926;28;20067;-60
2022/04/19 12:21:05;;;;;;;3.40;3.10;;;9.60;99.90;;;;;;5032685;28;20125;-60
2022/04/19 12:23:32;;;;;;;3.85;3.38;;;9.70;99.90;;;;;;5032761;28;20682;-60
2022/04/19 12:26:07;;;;;;;4.78;3.47;;;10.00;99.90;;;;;;5033985;28;20033;-59
2022/04/19 12:28:38;;;;;;;4.25;3.08;;;10.20;99.70;;;;;;5033820;28;20026;-59
2022/04/19 12:31:04;;;;;;;4.47;3.50;;;10.00;99.30;;;;;;5033833;28;20026;-60
2022/04/19 12:33:30;;;;;;;5.78;3.60;;;10.00;99.10;;;;;;5033555;28;20029;-60
2022/04/19 12:35:56;;;;;;;4.25;3.50;;;10.10;99.70;;;;;;5033954;28;20453;-60
2022/04/19 12:38:29;;;;;;;5.07;2.92;;;10.30;99.40;;;;;;5033673;28;20018;-60
2022/04/19 12:40:55;;;;;;;4.13;3.15;;;10.50;98.60;;;;;;5033626;28;20037;-59
2022/04/19 12:43:42;;;;;;;7.18;3.72;;;10.50;97.70;;;;;;5033534;28;20458;-60
2022/04/19 12:46:07;;;;;;;5.07;3.80;;;10.50;99.50;;;;;;5033392;28;20112;-60
2022/04/19 12:48:33;;;;;;;4.40;3.47;;;10.40;98.70;;;;;;5033497;28;20108;-59
2022/04/19 12:51:01;;;;;;;4.18;3.30;;;10.50;99.40;;;;;;5033498;28;20052;-60
2022/04/19 12:53:26;;;;;;;3.35;2.83;;;11.10;96.80;;;;;;5033154;28;20028;-60
2022/04/19 12:55:52;;;;;;;4.07;2.90;;;11.10;96.30;;;;;;5033205;28;20553;-60
2022/04/19 12:58:18;;;;;;;5.40;3.30;;;10.70;96.40;;;;;;5033026;28;20113;-60
2022/04/19 13:00:43;;;;;;;5.50;3.28;;;10.60;97.20;;;;;;5033213;28;20028;-60
2022/04/19 13:03:09;;;;;;;4.72;4.15;;;10.60;96.90;;;;;;5033035;28;20032;-60
2022/04/19 13:13:47;;;;;;;5.35;3.95;;;10.80;98.40;;;;;;5032928;28;20428;-60
2022/04/19 13:16:14;;;;;;;5.07;4.55;;;11.10;97.90;;;;;;5032696;28;20117;-59
2022/04/19 13:18:40;;;;;;;5.80;3.83;;;11.00;97.70;;;;;;5032709;28;20030;-59
2022/04/19 13:21:07;;;;;;;8.77;4.68;;;11.00;97.70;;;;;;5032307;28;20113;-60
2022/04/19 13:23:32;;;;;;;5.10;3.97;;;10.60;97.40;;;;;;5032586;28;20080;-60
2022/04/19 13:25:58;;;;;;;7.22;4.88;;;10.60;97.40;;;;;;5032807;28;20033;-60
2022/04/19 13:28:26;;;;;;;7.60;4.13;;;10.60;97.90;;;;;;5028570;28;20148;-60
2022/04/19 13:30:54;;;;;;;5.93;4.15;;;10.50;96.60;;;;;;5023049;28;20034;-60
2022/04/19 13:33:20;;;;;;;24.98;11.57;;;10.40;97.40;;;;;;5023292;28;20060;-60
2022/04/19 13:35:46;;;;;;;12.38;6.10;;;10.40;98.10;;;;;;5023663;28;20575;-60
2022/04/19 13:38:23;;;;;;;11.68;7.13;;;10.30;97.80;;;;;;5022407;28;20043;-60
2022/04/19 13:40:49;;;;;;;6.13;4.50;;;10.20;98.50;;;;;;5022976;28;20548;-60
2022/04/19 13:43:14;;;;;;;6.68;5.35;;;9.90;99.90;;;;;;5021407;28;20124;-60
2022/04/19 13:45:40;;;;;;;7.57;5.82;;;9.60;99.90;;;;;;5022820;28;20108;-60
2022/04/19 13:48:06;;;;;;;8.18;6.03;;;9.20;99.90;;;;;;5023130;28;20099;-60
2022/04/19 13:50:32;;;;;;;9.35;6.85;;;8.70;99.90;;;;;;5022395;28;20112;-60
2022/04/19 13:52:57;;;;;;;14.20;7.95;;;8.50;99.90;;;;;;5022685;28;20565;-59
2022/04/19 13:55:23;;;;;;;11.30;7.60;;;8.20;99.90;;;;;;5022590;28;20022;-59